createdAt,value
2018-09-29T00:02:12.862Z,99.90
2018-09-29T00:04:41.367Z,99.90
2018-09-29T00:07:09.897Z,99.90
2018-09-29T00:09:38.358Z,99.90
2018-09-29T00:12:06.830Z,99.90
2018-09-29T00:14:35.289Z,99.90
2018-09-29T00:17:03.760Z,99.90
2018-09-29T00:19:32.202Z,99.90
2018-09-29T00:22:00.679Z,99.90
2018-09-29T00:24:29.132Z,99.90
2018-09-29T00:26:57.610Z,99.90
2018-09-29T00:29:26.071Z,99.90
2018-09-29T00:31:54.538Z,99.90
2018-09-29T00:34:22.993Z,99.90
2018-09-29T00:36:51.462Z,99.90
2018-09-29T00:39:19.947Z,99.90
2018-09-29T00:41:48.455Z,99.90
2018-09-29T00:44:16.944Z,99.90
2018-09-29T00:46:45.391Z,99.90
2018-09-29T00:49:13.878Z,99.90
2018-09-29T00:51:42.379Z,99.90
2018-09-29T00:54:10.852Z,99.90
2018-09-29T00:56:39.311Z,99.90
2018-09-29T00:59:07.809Z,99.90
2018-09-29T01:01:36.264Z,99.90
2018-09-29T01:04:04.774Z,99.90
2018-09-29T01:06:33.254Z,99.90
2018-09-29T01:09:01.766Z,99.90
2018-09-29T01:11:30.217Z,99.90
2018-09-29T01:13:58.707Z,99.90
2018-09-29T01:16:27.169Z,99.90
2018-09-29T01:18:55.668Z,99.90
2018-09-29T01:21:24.131Z,99.90
2018-09-29T01:23:52.615Z,99.90
2018-09-29T01:26:21.073Z,99.90
2018-09-29T01:28:49.549Z,99.90
2018-09-29T01:31:18.091Z,99.90
2018-09-29T01:33:46.543Z,99.90
2018-09-29T01:36:15.522Z,99.90
2018-09-29T01:38:44.206Z,99.90
2018-09-29T01:41:12.678Z,99.90
2018-09-29T01:43:41.265Z,99.90
2018-09-29T01:46:09.762Z,99.90
2018-09-29T01:48:38.239Z,99.90
2018-09-29T01:51:06.702Z,99.90
2018-09-29T01:53:35.186Z,99.90
2018-09-29T01:56:03.647Z,99.90
2018-09-29T01:58:32.135Z,99.90
2018-09-29T02:01:00.577Z,99.90
2018-09-29T02:03:29.055Z,99.90
2018-09-29T02:05:57.502Z,99.90
2018-09-29T02:08:26.099Z,99.90
2018-09-29T02:10:54.570Z,99.90
2018-09-29T02:13:23.058Z,99.90
2018-09-29T02:15:51.582Z,99.90
2018-09-29T02:18:20.052Z,99.90
2018-09-29T02:20:48.520Z,99.90
2018-09-29T02:23:17.004Z,99.90
2018-09-29T02:25:45.485Z,99.90
2018-09-29T02:28:13.950Z,99.90
2018-09-29T02:30:42.429Z,99.90
2018-09-29T02:33:10.909Z,99.90
2018-09-29T02:35:39.384Z,99.90
2018-09-29T02:38:07.884Z,99.90
2018-09-29T02:40:36.365Z,99.90
2018-09-29T02:43:04.829Z,99.90
2018-09-29T02:45:33.314Z,99.90
2018-09-29T02:48:01.774Z,99.90
2018-09-29T02:50:30.226Z,99.90
2018-09-29T02:52:58.674Z,99.90
2018-09-29T02:55:27.209Z,99.90
2018-09-29T02:57:55.654Z,99.90
2018-09-29T03:00:24.550Z,99.90
2018-09-29T03:02:53.011Z,99.90
2018-09-29T03:05:21.515Z,99.90
2018-09-29T03:07:49.995Z,99.90
2018-09-29T03:10:18.506Z,99.90
2018-09-29T03:12:46.963Z,99.90
2018-09-29T03:15:15.424Z,99.90
2018-09-29T03:17:43.895Z,99.90
2018-09-29T03:20:12.404Z,99.90
2018-09-29T03:22:40.853Z,99.90
2018-09-29T03:25:09.324Z,99.90
2018-09-29T03:27:37.775Z,99.90
2018-09-29T03:30:06.559Z,99.90
2018-09-29T03:32:35.014Z,99.90
2018-09-29T03:35:03.546Z,99.90
2018-09-29T03:37:32.015Z,99.90
2018-09-29T03:40:00.505Z,99.90
2018-09-29T03:42:28.990Z,99.90
2018-09-29T03:44:57.466Z,99.90
2018-09-29T03:47:25.911Z,99.90
2018-09-29T03:49:54.365Z,99.90
2018-09-29T03:52:22.865Z,99.90
2018-09-29T03:54:51.319Z,99.90
2018-09-29T03:57:19.778Z,99.90
2018-09-29T03:59:48.248Z,99.90
2018-09-29T04:02:16.717Z,99.90
2018-09-29T04:04:45.184Z,99.90
2018-09-29T04:07:13.654Z,99.90
2018-09-29T04:09:42.146Z,99.90
2018-09-29T04:12:10.688Z,99.90
2018-09-29T04:14:39.119Z,99.90
2018-09-29T04:17:07.599Z,99.90
2018-09-29T04:19:36.072Z,99.90
2018-09-29T04:22:04.558Z,99.90
2018-09-29T04:24:33.014Z,99.90
2018-09-29T04:27:01.535Z,99.90
2018-09-29T04:29:30.026Z,99.90
2018-09-29T04:31:58.479Z,99.90
2018-09-29T04:34:26.939Z,99.90
2018-09-29T04:36:55.380Z,99.90
2018-09-29T04:39:23.913Z,99.90
2018-09-29T04:41:52.406Z,99.90
2018-09-29T04:44:20.893Z,99.90
2018-09-29T04:46:49.357Z,99.90
2018-09-29T04:49:17.859Z,99.90
2018-09-29T04:51:46.270Z,99.90
2018-09-29T04:54:14.799Z,99.90
2018-09-29T04:56:43.246Z,99.90
2018-09-29T04:59:11.727Z,99.90
2018-09-29T05:01:40.194Z,99.90
2018-09-29T05:04:08.674Z,99.90
2018-09-29T05:09:07.670Z,99.90
2018-09-29T05:11:36.124Z,99.90
2018-09-29T05:14:04.739Z,99.90
2018-09-29T05:16:33.163Z,99.90
2018-09-29T05:19:01.625Z,99.90
2018-09-29T05:21:30.087Z,99.90
2018-09-29T05:23:58.588Z,99.90
2018-09-29T05:26:27.068Z,99.90
2018-09-29T05:28:55.544Z,99.90
2018-09-29T05:31:24.025Z,99.90
2018-09-29T05:33:52.504Z,99.90
2018-09-29T05:36:20.965Z,99.90
2018-09-29T05:38:49.449Z,99.90
2018-09-29T05:41:17.949Z,99.90
2018-09-29T05:43:46.453Z,99.90
2018-09-29T05:46:14.918Z,99.90
2018-09-29T05:48:49.774Z,99.90
2018-09-29T05:51:18.249Z,99.90
2018-09-29T05:53:46.781Z,99.90
2018-09-29T05:56:15.213Z,99.90
2018-09-29T05:58:43.686Z,99.90
2018-09-29T06:01:12.167Z,99.90
2018-09-29T06:03:40.625Z,99.90
2018-09-29T06:06:09.160Z,99.90
2018-09-29T06:08:37.922Z,99.90
2018-09-29T06:11:06.416Z,99.90
2018-09-29T06:13:34.891Z,99.90
2018-09-29T06:16:03.331Z,99.90
2018-09-29T06:18:31.789Z,99.90
2018-09-29T06:21:00.264Z,99.90
2018-09-29T06:23:28.670Z,99.90
2018-09-29T06:25:57.165Z,99.90
2018-09-29T06:28:25.635Z,99.90
2018-09-29T06:30:54.089Z,99.90
2018-09-29T06:33:22.716Z,99.90
2018-09-29T06:35:51.257Z,99.90
2018-09-29T06:38:20.000Z,99.90
2018-09-29T06:40:48.563Z,99.90
2018-09-29T06:43:17.148Z,99.90
2018-09-29T06:45:45.746Z,99.90
2018-09-29T06:48:15.231Z,99.90
2018-09-29T06:50:43.752Z,99.90
2018-09-29T06:53:12.218Z,99.90
2018-09-29T06:55:41.209Z,99.90
2018-09-29T06:58:09.635Z,99.90
2018-09-29T07:00:38.077Z,99.90
2018-09-29T07:03:06.897Z,99.90
2018-09-29T07:05:35.756Z,99.90
2018-09-29T07:08:04.637Z,99.90
2018-09-29T07:10:33.172Z,99.90
2018-09-29T07:13:01.732Z,99.90
2018-09-29T07:15:30.138Z,99.90
2018-09-29T07:17:58.573Z,99.90
2018-09-29T07:20:27.100Z,99.90
2018-09-29T07:22:55.543Z,99.90
2018-09-29T07:25:24.034Z,99.90
2018-09-29T07:27:52.444Z,99.90
2018-09-29T07:30:20.887Z,99.90
2018-09-29T07:32:49.322Z,99.90
2018-09-29T07:35:17.775Z,99.90
2018-09-29T07:37:46.242Z,99.90
2018-09-29T07:40:14.719Z,97.20
2018-09-29T07:42:43.156Z,98.10
2018-09-29T07:45:11.838Z,98.90
2018-09-29T07:47:40.290Z,98.80
2018-09-29T07:50:08.749Z,95.80
2018-09-29T07:52:37.282Z,93.60
2018-09-29T07:55:05.815Z,93.10
2018-09-29T07:57:34.321Z,90.70
2018-09-29T08:00:02.773Z,91.30
2018-09-29T08:02:31.235Z,90.60
2018-09-29T08:04:59.662Z,90.50
2018-09-29T08:07:28.119Z,88.90
2018-09-29T08:09:56.627Z,87.10
2018-09-29T08:12:25.137Z,89.00
2018-09-29T08:15:56.598Z,87.00
2018-09-29T08:18:25.021Z,85.90
2018-09-29T08:20:53.478Z,82.50
2018-09-29T08:23:21.930Z,79.80
2018-09-29T08:25:50.399Z,76.60
2018-09-29T08:28:18.842Z,76.60
2018-09-29T08:30:47.325Z,76.40
2018-09-29T08:33:15.754Z,76.70
2018-09-29T08:35:44.274Z,73.50
2018-09-29T08:38:12.822Z,71.00
2018-09-29T08:40:41.301Z,69.20
2018-09-29T08:43:09.764Z,69.60
2018-09-29T08:45:38.208Z,67.90
2018-09-29T08:48:06.915Z,67.40
2018-09-29T08:50:35.404Z,64.50
2018-09-29T08:53:03.842Z,63.50
2018-09-29T08:55:32.299Z,62.20
2018-09-29T08:58:00.737Z,63.60
2018-09-29T09:00:29.183Z,60.60
2018-09-29T09:02:57.642Z,60.70
2018-09-29T09:05:26.159Z,61.50
2018-09-29T09:07:54.600Z,59.90
2018-09-29T09:10:23.082Z,59.50
2018-09-29T09:12:51.545Z,58.20
2018-09-29T09:15:19.990Z,57.40
2018-09-29T09:17:48.455Z,57.00
2018-09-29T09:20:16.901Z,56.80
2018-09-29T09:22:45.363Z,54.80
2018-09-29T09:25:13.825Z,55.20
2018-09-29T09:27:42.340Z,56.40
2018-09-29T09:30:10.902Z,55.30
2018-09-29T09:32:39.336Z,55.40
2018-09-29T09:35:07.844Z,54.40
2018-09-29T09:37:36.293Z,53.30
2018-09-29T09:40:04.806Z,52.70
2018-09-29T09:42:33.271Z,52.80
2018-09-29T09:45:01.715Z,52.10
2018-09-29T09:47:30.134Z,52.60
2018-09-29T09:49:58.608Z,52.80
2018-09-29T09:52:27.049Z,52.90
2018-09-29T09:54:55.526Z,52.30
2018-09-29T09:57:23.978Z,50.50
2018-09-29T09:59:52.451Z,50.60
2018-09-29T10:02:26.137Z,49.60
2018-09-29T10:04:54.598Z,49.20
2018-09-29T10:07:23.042Z,48.40
2018-09-29T10:09:51.501Z,48.90
2018-09-29T10:12:19.961Z,48.30
2018-09-29T10:14:48.789Z,48.00
2018-09-29T10:17:17.291Z,47.00
2018-09-29T10:19:45.733Z,45.70
2018-09-29T10:22:14.193Z,46.80
2018-09-29T10:24:42.663Z,49.00
2018-09-29T10:27:11.113Z,48.20
2018-09-29T10:29:39.574Z,47.10
2018-09-29T10:32:08.035Z,46.60
2018-09-29T10:34:36.495Z,47.10
2018-09-29T10:37:04.971Z,46.50
2018-09-29T10:39:33.440Z,45.80
2018-09-29T10:42:01.891Z,46.40
2018-09-29T10:44:30.349Z,46.10
2018-09-29T10:46:58.792Z,44.80
2018-09-29T10:49:27.269Z,43.70
2018-09-29T10:51:55.717Z,41.60
2018-09-29T10:54:24.174Z,41.60
2018-09-29T10:56:52.787Z,40.90
2018-09-29T10:59:21.266Z,40.70
2018-09-29T11:01:49.717Z,40.80
2018-09-29T11:06:46.321Z,40.80
2018-09-29T11:11:42.923Z,40.20
2018-09-29T11:14:11.410Z,40.90
2018-09-29T11:16:39.856Z,40.00
2018-09-29T11:19:08.379Z,38.30
2018-09-29T11:21:36.832Z,37.90
2018-09-29T11:24:05.376Z,37.40
2018-09-29T11:29:01.951Z,37.60
2018-09-29T11:31:30.422Z,36.30
2018-09-29T11:33:58.888Z,41.30
2018-09-29T11:36:27.329Z,40.60
2018-09-29T11:38:55.811Z,35.90
2018-09-29T11:41:24.275Z,35.20
2018-09-29T11:43:52.733Z,37.00
2018-09-29T11:46:21.182Z,36.10
2018-09-29T11:48:49.622Z,36.20
2018-09-29T11:51:18.071Z,34.00
2018-09-29T11:53:46.543Z,34.10
2018-09-29T11:56:15.004Z,33.00
2018-09-29T11:58:43.475Z,32.70
2018-09-29T12:01:11.961Z,35.20
2018-09-29T12:03:40.413Z,36.60
2018-09-29T12:06:08.914Z,33.60
2018-09-29T12:08:37.384Z,33.50
2018-09-29T12:11:05.925Z,35.00
2018-09-29T12:13:34.401Z,37.40
2018-09-29T12:16:02.884Z,40.40
2018-09-29T12:18:31.347Z,40.20
2018-09-29T12:20:59.817Z,34.40
2018-09-29T12:23:28.284Z,34.50
2018-09-29T12:25:56.792Z,35.40
2018-09-29T12:28:25.243Z,33.60
2018-09-29T12:30:53.722Z,33.10
2018-09-29T12:33:22.215Z,32.90
2018-09-29T12:35:50.692Z,31.20
2018-09-29T12:38:19.154Z,31.40
2018-09-29T12:40:47.606Z,31.30
2018-09-29T12:43:16.097Z,31.40
2018-09-29T12:45:44.545Z,30.80
2018-09-29T12:48:13.007Z,30.20
2018-09-29T12:50:41.502Z,31.60
2018-09-29T12:53:09.968Z,31.40
2018-09-29T12:55:38.435Z,30.70
2018-09-29T12:58:06.868Z,31.10
2018-09-29T13:00:35.309Z,30.60
2018-09-29T13:03:03.759Z,28.20
2018-09-29T13:05:32.194Z,29.30
2018-09-29T13:08:00.637Z,29.10
2018-09-29T13:10:29.075Z,28.70
2018-09-29T13:12:57.545Z,27.90
2018-09-29T13:15:25.969Z,28.30
2018-09-29T13:17:54.414Z,27.80
2018-09-29T13:20:22.858Z,26.80
2018-09-29T13:22:51.355Z,27.40
2018-09-29T13:25:19.838Z,27.60
2018-09-29T13:27:48.295Z,28.00
2018-09-29T13:30:16.747Z,27.40
2018-09-29T13:32:45.202Z,28.20
2018-09-29T13:35:13.637Z,28.10
2018-09-29T13:37:42.088Z,27.20
2018-09-29T13:40:10.640Z,27.50
2018-09-29T13:42:39.087Z,27.20
2018-09-29T13:45:07.586Z,27.60
2018-09-29T13:47:36.013Z,27.80
2018-09-29T13:50:04.859Z,27.70
2018-09-29T13:52:33.304Z,28.40
2018-09-29T13:55:01.788Z,28.00
2018-09-29T13:57:30.337Z,28.30
2018-09-29T13:59:59.174Z,28.40
2018-09-29T14:02:27.631Z,28.50
2018-09-29T14:04:56.110Z,28.60
2018-09-29T14:07:24.570Z,29.40
2018-09-29T14:09:53.039Z,29.40
2018-09-29T14:12:21.494Z,29.30
2018-09-29T14:14:49.954Z,29.00
2018-09-29T14:17:18.387Z,28.70
2018-09-29T14:19:46.916Z,31.50
2018-09-29T14:22:15.393Z,28.80
2018-09-29T14:24:43.905Z,29.10
2018-09-29T14:27:12.363Z,29.50
2018-09-29T14:29:40.845Z,29.80
2018-09-29T14:32:09.274Z,29.10
2018-09-29T14:34:37.727Z,30.80
2018-09-29T14:37:06.270Z,31.00
2018-09-29T14:39:34.673Z,31.70
2018-09-29T14:42:03.239Z,31.80
2018-09-29T14:44:31.632Z,31.40
2018-09-29T14:47:00.104Z,31.90
2018-09-29T14:49:28.567Z,31.80
2018-09-29T14:51:57.034Z,32.60
2018-09-29T14:54:25.492Z,32.10
2018-09-29T14:56:53.963Z,32.20
2018-09-29T14:59:22.420Z,33.00
2018-09-29T15:01:50.987Z,33.40
2018-09-29T15:04:19.541Z,33.60
2018-09-29T15:06:47.919Z,33.90
2018-09-29T15:09:16.399Z,33.80
2018-09-29T15:11:44.834Z,33.90
2018-09-29T15:14:13.378Z,36.10
2018-09-29T15:16:42.026Z,34.50
2018-09-29T15:19:10.282Z,34.40
2018-09-29T15:21:38.747Z,34.30
2018-09-29T15:24:07.253Z,34.20
2018-09-29T15:26:35.711Z,35.70
2018-09-29T15:29:04.194Z,34.90
2018-09-29T15:31:33.195Z,33.70
2018-09-29T15:34:01.634Z,34.60
2018-09-29T15:36:30.217Z,33.80
2018-09-29T15:38:58.715Z,34.40
2018-09-29T15:41:27.195Z,34.50
2018-09-29T15:43:55.653Z,34.60
2018-09-29T15:46:24.173Z,34.80
2018-09-29T15:48:52.677Z,34.90
2018-09-29T15:51:21.156Z,35.00
2018-09-29T15:53:49.605Z,36.30
2018-09-29T15:56:18.085Z,36.00
2018-09-29T15:58:46.580Z,36.00
2018-09-29T16:01:15.067Z,36.10
2018-09-29T16:03:43.515Z,36.90
2018-09-29T16:06:12.845Z,36.20
2018-09-29T16:08:41.319Z,37.60
2018-09-29T16:11:09.860Z,37.30
2018-09-29T16:13:38.789Z,36.30
2018-09-29T16:16:07.245Z,35.90
2018-09-29T16:18:35.738Z,36.10
2018-09-29T16:21:04.208Z,36.60
2018-09-29T16:23:32.683Z,35.90
2018-09-29T16:26:01.412Z,36.70
2018-09-29T16:28:29.875Z,36.40
2018-09-29T16:30:58.314Z,37.10
2018-09-29T16:33:26.993Z,36.70
2018-09-29T16:35:55.431Z,37.30
2018-09-29T16:38:23.899Z,37.50
2018-09-29T16:40:52.374Z,37.60
2018-09-29T16:43:20.897Z,37.40
2018-09-29T16:45:49.333Z,37.60
2018-09-29T16:48:17.917Z,38.10
2018-09-29T16:50:46.375Z,39.30
2018-09-29T16:53:14.862Z,42.40
2018-09-29T16:55:43.342Z,44.70
2018-09-29T16:58:12.079Z,44.10
2018-09-29T17:00:40.573Z,43.80
2018-09-29T17:03:15.644Z,44.90
2018-09-29T17:05:44.114Z,47.80
2018-09-29T17:08:12.560Z,50.50
2018-09-29T17:10:41.023Z,53.10
2018-09-29T17:13:09.482Z,53.10
2018-09-29T17:15:37.970Z,56.80
2018-09-29T17:18:06.434Z,56.70
2018-09-29T17:20:34.897Z,58.30
2018-09-29T17:23:03.441Z,60.20
2018-09-29T17:25:31.873Z,74.20
2018-09-29T17:28:00.329Z,71.40
2018-09-29T17:30:28.780Z,80.60
2018-09-29T17:32:57.257Z,93.00
2018-09-29T17:35:25.737Z,95.10
2018-09-29T17:37:54.214Z,93.20
2018-09-29T17:40:22.670Z,95.00
2018-09-29T17:42:51.150Z,97.00
2018-09-29T17:45:19.731Z,97.40
2018-09-29T17:47:48.119Z,98.50
2018-09-29T17:50:16.589Z,99.90
2018-09-29T17:52:45.102Z,98.50
2018-09-29T17:55:13.929Z,98.60
2018-09-29T17:57:42.416Z,99.10
2018-09-29T18:00:10.890Z,97.70
2018-09-29T18:02:40.090Z,99.90
2018-09-29T18:05:08.607Z,99.90
2018-09-29T18:07:37.045Z,97.40
2018-09-29T18:10:05.974Z,99.40
2018-09-29T18:12:34.476Z,93.90
2018-09-29T18:15:03.335Z,98.10
2018-09-29T18:17:31.797Z,98.30
2018-09-29T18:20:00.305Z,98.20
2018-09-29T18:22:28.788Z,99.90
2018-09-29T18:24:57.237Z,99.90
2018-09-29T18:27:25.717Z,99.90
2018-09-29T18:29:54.184Z,97.60
2018-09-29T18:32:22.721Z,97.70
2018-09-29T18:34:51.204Z,99.90
2018-09-29T18:37:19.805Z,99.20
2018-09-29T18:39:48.185Z,99.90
2018-09-29T18:42:16.670Z,99.70
2018-09-29T18:44:45.153Z,99.90
2018-09-29T18:47:13.607Z,99.90
2018-09-29T18:49:42.046Z,99.90
2018-09-29T18:52:10.512Z,99.90
2018-09-29T18:54:38.989Z,99.90
2018-09-29T18:57:07.538Z,99.90
2018-09-29T18:59:36.045Z,99.90
2018-09-29T19:02:04.506Z,99.90
2018-09-29T19:04:33.000Z,99.90
2018-09-29T19:09:29.813Z,99.90
2018-09-29T19:11:58.301Z,99.90
2018-09-29T19:14:26.735Z,99.90
2018-09-29T19:16:55.227Z,99.90
2018-09-29T19:19:23.676Z,99.90
2018-09-29T19:21:52.153Z,99.90
2018-09-29T19:24:27.101Z,99.90
2018-09-29T19:26:55.555Z,99.90
2018-09-29T19:29:24.067Z,99.90
2018-09-29T19:31:52.553Z,99.90
2018-09-29T19:34:21.005Z,99.90
2018-09-29T19:36:49.471Z,99.90
2018-09-29T19:39:18.001Z,99.90
2018-09-29T19:41:46.489Z,99.90
2018-09-29T19:44:15.016Z,99.90
2018-09-29T19:46:44.558Z,99.90
2018-09-29T19:49:13.058Z,99.90
2018-09-29T19:51:41.585Z,99.90
2018-09-29T19:54:10.057Z,99.90
2018-09-29T19:56:38.585Z,99.90
2018-09-29T19:59:07.055Z,99.90
2018-09-29T20:01:35.517Z,99.90
2018-09-29T20:04:04.270Z,99.90
2018-09-29T20:06:32.800Z,99.90
2018-09-29T20:09:01.275Z,99.90
2018-09-29T20:11:29.733Z,99.90
2018-09-29T20:13:58.194Z,99.90
2018-09-29T20:16:26.735Z,99.90
2018-09-29T20:18:55.187Z,99.90
2018-09-29T20:21:23.859Z,99.90
2018-09-29T20:23:52.321Z,99.90
2018-09-29T20:26:20.867Z,99.90
2018-09-29T20:28:49.371Z,99.90
2018-09-29T20:31:17.848Z,99.90
2018-09-29T20:33:46.352Z,99.90
2018-09-29T20:36:14.966Z,99.90
2018-09-29T20:38:43.668Z,99.90
2018-09-29T20:41:12.432Z,99.90
2018-09-29T20:43:40.913Z,99.90
2018-09-29T20:46:09.377Z,99.90
2018-09-29T20:48:37.830Z,99.90
2018-09-29T20:51:06.375Z,99.90
2018-09-29T20:53:35.098Z,99.90
2018-09-29T20:56:03.661Z,99.90
2018-09-29T20:58:32.173Z,99.90
2018-09-29T21:01:00.645Z,99.90
2018-09-29T21:03:29.150Z,99.90
2018-09-29T21:05:57.968Z,99.90
2018-09-29T21:08:26.569Z,99.90
2018-09-29T21:10:55.131Z,99.90
2018-09-29T21:13:23.766Z,99.90
2018-09-29T21:15:52.214Z,99.90
2018-09-29T21:18:20.914Z,99.90
2018-09-29T21:20:49.396Z,99.90
2018-09-29T21:23:18.252Z,99.90
2018-09-29T21:25:46.727Z,99.90
2018-09-29T21:28:15.251Z,99.90
2018-09-29T21:30:43.790Z,99.90
2018-09-29T21:33:12.381Z,99.90
2018-09-29T21:35:40.894Z,99.90
2018-09-29T21:38:09.465Z,99.90
2018-09-29T21:40:37.962Z,99.90
2018-09-29T21:43:06.545Z,99.90
2018-09-29T21:45:35.084Z,99.90
2018-09-29T21:48:03.607Z,99.90
2018-09-29T21:50:32.114Z,99.90
2018-09-29T21:53:00.634Z,99.90
2018-09-29T21:55:29.287Z,99.90
2018-09-29T21:57:57.810Z,99.90
2018-09-29T22:00:31.513Z,99.90
2018-09-29T22:03:00.055Z,99.90
2018-09-29T22:05:28.542Z,99.90
2018-09-29T22:07:57.147Z,99.90
2018-09-29T22:10:25.694Z,99.90
2018-09-29T22:12:54.299Z,99.90
2018-09-29T22:15:22.795Z,99.90
2018-09-29T22:17:51.363Z,99.90
2018-09-29T22:20:19.897Z,99.90
2018-09-29T22:22:48.578Z,99.90
2018-09-29T22:25:17.117Z,99.90
2018-09-29T22:27:46.234Z,99.90
2018-09-29T22:30:14.716Z,99.90
2018-09-29T22:32:43.525Z,99.90
2018-09-29T22:35:12.217Z,99.90
2018-09-29T22:37:40.712Z,99.90
2018-09-29T22:40:09.313Z,99.90
2018-09-29T22:42:37.803Z,99.90
2018-09-29T22:45:06.441Z,99.90
2018-09-29T22:47:35.026Z,99.90
2018-09-29T22:50:03.585Z,99.90
2018-09-29T22:52:32.075Z,99.90
2018-09-29T22:55:00.626Z,99.90
2018-09-29T22:57:29.179Z,99.90
2018-09-29T22:59:57.706Z,99.90
2018-09-29T23:02:26.186Z,99.90
2018-09-29T23:04:54.774Z,99.90
2018-09-29T23:07:23.301Z,99.90
2018-09-29T23:09:51.781Z,99.90
2018-09-29T23:12:20.282Z,99.90
2018-09-29T23:14:48.809Z,99.90
2018-09-29T23:17:17.330Z,99.90
2018-09-29T23:19:45.811Z,99.90
2018-09-29T23:22:14.282Z,99.90
2018-09-29T23:24:42.759Z,99.90
2018-09-29T23:27:11.241Z,99.90
2018-09-29T23:29:39.799Z,99.90
2018-09-29T23:32:08.329Z,99.90
2018-09-29T23:34:36.796Z,99.90
2018-09-29T23:37:05.383Z,99.90
2018-09-29T23:39:33.889Z,99.90
2018-09-29T23:42:02.429Z,99.90
2018-09-29T23:44:30.893Z,99.90
2018-09-29T23:46:59.412Z,99.90
2018-09-29T23:49:27.919Z,99.90
2018-09-29T23:51:56.413Z,99.90
2018-09-29T23:54:25.235Z,99.90
2018-09-29T23:56:53.681Z,99.90
2018-09-29T23:59:22.203Z,99.90
